Cleveland, OH

10:34 PM EDT on September 15, 2014 (GMT -0400)
Buckeye Woodhill | Change Station
CLOSE
Current Station
Personal Weather Station
Location: Cleveland, OH
Elevation: 768 ft
Nearby Weather Stations

Elev 768 ft 41.48 °N, 81.62 °W | Updated 50 seconds ago

Rain
Rain
56.7 °F
Feels Like 56.7 °F
N
2.0
Wind Variable Wind from NNW
Gusts 5.0 mph

Today
High -- | Low -- °F
--% Chance of Precip.
Yesterday
High -- | Low -- °F
Precip. -- in
7:06 AM 7:35 PM
Waning Gibbous, 50% visible
Pressure 30.07 in
Visibility 8.0 miles
Clouds Few 700 ft
Mostly Cloudy 1100 ft
Overcast 2400 ft
Dew Point 55 °F
Humidity 95%
Rainfall 0.23 in
Snow Depth Not available.
UV 0 out of 12
Pollen 3.70 out of 12
Ozone Good
PM2.5 Good
Flu Activity Not available.
SPECI KBKL 160220Z 32013KT 8SM RA FEW007 BKN011 OVC024 14/13 A3007 RMK AO2 P0004 T01440128

More Conditions Fewer Conditions

Pressure 30.07 in
Visibility 8.0 miles
Clouds Few 700 ft
Mostly Cloudy 1100 ft
Overcast 2400 ft
Dew Point 55 °F
Humidity 95%
Rainfall 0.23 in
Snow Depth Not available.
UV 0 out of 12
Pollen 3.70 out of 12
Ozone Good
PM2.5 Good
Flu Activity Not available.
SPECI KBKL 160220Z 32013KT 8SM RA FEW007 BKN011 OVC024 14/13 A3007 RMK AO2 P0004 T01440128

More Conditions Fewer Conditions

10-Day Weather Forecast

Almanac

Astronomy

Sep. 15, 2014 Rise Set
Actual Time 7:06 AM EDT 7:35 PM EDT
Civil Twilight 6:39 AM EDT 8:03 PM EDT
Nautical Twilight 6:06 AM EDT 8:36 PM EDT
Astronomical Twilight 5:32 AM EDT 9:10 PM EDT
Moon No Moon Rise 2:10 PM EDT (9/15)
Length of Visible Light 13h 24m
Length of Day
12h 29m
Tomorrow will be 2m 45s shorter.
Waning Gibbous, 50% of the Moon is Illuminated
Today
Waning Gibbous
Sep 24
New
Oct 1
First Quarter
Oct 8
Full
Oct 15
Last Quarter

Today's Extremes

State Highs State Lows

Community

WunderPhotos

Upload Photos

1,753,668 photos uploaded!

Nearby

Air Quality

  Air Quality AQ Index Pollutant
Yesterday Good
PM10
Yesterday Good
OZONE
Current Good
PM2.5
Current Good
OZONE
Monday Good
PM2.5
Monday Good
OZONE
Tuesday Good
PM2.5
Tuesday Good
OZONE
Wednesday Good
PM2.5
Wednesday Good
OZONE
Thursday Moderate
PM2.5
Thursday Good
OZONE
Friday Moderate
PM2.5
Friday Good
OZONE

Snow Depth

Station Depth Elevation
No new snow has been reported.

Earthquake Activity

City Distance Mag. Time & Date
No recent earthquake activity has been reported nearby.
Minimum magnitude displayed is 2.5.

Coastal Water Temperatures

Place Temperature
Cleveland, OH 66.9 °F
Fairport, OH 66.0 °F

Nearby Weather Stations